Time;durP1;ratioP1;P1;durP2;ratioP2;P2;SDS_P1;SDS_P2;PMS_P1;PMS_P2;Temp;Humidity;BMP_temperature;BMP_pressure;BME280_temperature;BME280_humidity;BME280_pressure;Samples;Min_cycle;Max_cycle;Signal;HPM_P1;HPM_P2
2022/06/01 00:01:29;;;;;;;;;;;9.70;99.90;;;;;;5122483;27;20046;-63
2022/06/01 00:03:54;;;;;;;12.63;7.75;;;9.70;99.90;;;;;;5124414;27;19915;-64
2022/06/01 00:06:20;;;;;;;;;;;9.70;99.90;;;;;;5123263;27;20054;-64
2022/06/01 00:08:46;;;;;;;11.88;7.75;;;9.70;99.90;;;;;;5124019;27;19915;-64
2022/06/01 00:11:11;;;;;;;;;;;9.70;99.90;;;;;;5123155;28;20040;-64
2022/06/01 00:13:37;;;;;;;10.25;7.10;;;9.70;99.90;;;;;;5123499;28;20044;-64
2022/06/01 00:16:03;;;;;;;10.70;6.85;;;9.70;99.90;;;;;;5124600;27;20039;-63
2022/06/01 00:18:29;;;;;;;;;;;9.70;99.90;;;;;;5113221;28;20488;-63
2022/06/01 00:20:55;;;;;;;10.52;7.45;;;9.70;99.90;;;;;;5102254;28;19920;-63
2022/06/01 00:23:21;;;;;;;;;;;9.70;99.90;;;;;;5110191;28;20038;-63
2022/06/01 00:25:46;;;;;;;8.93;6.82;;;9.70;99.90;;;;;;5109596;27;19930;-63
2022/06/01 00:28:12;;;;;;;;;;;9.70;99.90;;;;;;5110933;28;20122;-63
2022/06/01 00:30:38;;;;;;;10.68;7.25;;;9.70;99.90;;;;;;5108542;27;19943;-63
2022/06/01 00:33:04;;;;;;;;;;;9.70;99.90;;;;;;5110038;28;20046;-63
2022/06/01 00:35:29;;;;;;;12.25;8.40;;;9.60;99.90;;;;;;5109545;28;20393;-64
2022/06/01 00:37:55;;;;;;;;;;;9.60;99.90;;;;;;5110688;28;20039;-63
2022/06/01 00:40:24;;;;;;;13.35;8.45;;;9.60;99.90;;;;;;5109616;28;19915;-64
2022/06/01 00:42:54;;;;;;;13.98;8.27;;;9.50;99.90;;;;;;5109615;28;20032;-64
2022/06/01 00:45:22;;;;;;;12.48;8.00;;;9.50;99.90;;;;;;5109786;28;20044;-63
2022/06/01 00:47:48;;;;;;;14.18;9.80;;;9.50;99.90;;;;;;5109315;28;20737;-64
2022/06/01 00:50:36;;;;;;;15.48;9.95;;;9.50;99.90;;;;;;5110573;28;20039;-63
2022/06/01 00:53:04;;;;;;;10.65;7.82;;;9.40;99.90;;;;;;5110299;28;20145;-63
2022/06/01 00:55:34;;;;;;;11.52;8.80;;;9.40;99.90;;;;;;5106624;28;20039;-63
2022/06/01 00:58:06;;;;;;;13.90;10.35;;;9.40;99.90;;;;;;5109704;28;20043;-64
2022/06/01 01:00:34;;;;;;;15.27;10.02;;;9.40;99.90;;;;;;5107454;27;20051;-63
2022/06/01 01:03:03;;;;;;;13.75;10.88;;;9.40;99.90;;;;;;5108708;28;20043;-63
2022/06/01 01:05:30;;;;;;;14.20;9.55;;;9.30;99.90;;;;;;5108378;28;20083;-64
2022/06/01 01:07:58;;;;;;;14.43;9.68;;;9.30;99.90;;;;;;5108797;28;20172;-64
2022/06/01 01:10:24;;;;;;;13.02;9.18;;;9.40;99.90;;;;;;5108300;28;20064;-63
2022/06/01 01:12:59;;;;;;;;;;;9.30;99.90;;;;;;5109212;28;20715;-63
2022/06/01 01:15:31;;;;;;;13.88;8.55;;;9.30;99.90;;;;;;5108614;28;19961;-64
2022/06/01 01:17:57;;;;;;;10.70;7.43;;;9.30;99.90;;;;;;5109082;28;20523;-63
2022/06/01 01:20:24;;;;;;;10.45;6.80;;;9.30;99.90;;;;;;5108181;28;20700;-63
2022/06/01 01:23:05;;;;;;;11.32;6.93;;;9.20;99.90;;;;;;5108871;28;20044;-63
2022/06/01 01:25:38;;;;;;;10.65;6.63;;;9.20;99.90;;;;;;5107887;28;20048;-63
2022/06/01 01:28:05;;;;;;;12.23;6.00;;;9.20;99.90;;;;;;5097791;28;20048;-64
2022/06/01 01:30:37;;;;;;;8.05;5.85;;;9.20;99.90;;;;;;5106170;28;20042;-64
2022/06/01 01:33:13;;;;;;;9.55;6.93;;;9.20;99.90;;;;;;5108209;28;20096;-63
2022/06/01 01:35:41;;;;;;;8.85;6.20;;;9.10;99.90;;;;;;5108449;28;20681;-63
2022/06/01 01:38:16;;;;;;;8.63;6.22;;;9.10;99.90;;;;;;5108278;28;20139;-63
2022/06/01 01:40:41;;;;;;;8.93;5.95;;;9.10;99.90;;;;;;5107878;28;20046;-62
2022/06/01 01:43:07;;;;;;;;;;;9.00;99.90;;;;;;5108243;28;20028;-63
2022/06/01 01:45:35;;;;;;;9.82;6.07;;;9.00;99.90;;;;;;5108292;28;19923;-63
2022/06/01 01:48:00;;;;;;;11.15;6.75;;;9.00;99.90;;;;;;5108311;28;20043;-63
2022/06/01 01:50:26;;;;;;;;;;;9.00;99.90;;;;;;5108659;28;20035;-64
2022/06/01 01:52:53;;;;;;;7.57;5.32;;;8.90;99.90;;;;;;5107449;28;19927;-64
2022/06/01 01:55:47;;;;;;;8.02;5.18;;;8.80;99.90;;;;;;5105064;28;20043;-62
2022/06/01 01:58:18;;;;;;;9.05;5.85;;;8.70;99.90;;;;;;5108032;28;20039;-63
2022/06/01 02:00:48;;;;;;;14.60;5.80;;;8.70;99.90;;;;;;5105377;28;20035;-60
2022/06/01 02:03:35;;;;;;;6.38;5.07;;;8.70;99.90;;;;;;5104699;28;20039;-62
2022/06/01 02:06:09;;;;;;;;;;;8.80;99.90;;;;;;5107899;28;20047;-62
2022/06/01 02:08:46;;;;;;;8.00;5.30;;;8.80;99.90;;;;;;5109011;27;19916;-62
2022/06/01 02:14:32;;;;;;;6.97;4.90;;;8.80;99.90;;;;;;5087790;28;20044;-59
2022/06/01 02:17:02;;;;;;;6.68;4.63;;;8.80;99.90;;;;;;5092296;28;20044;-58
2022/06/01 02:19:42;;;;;;;7.00;4.38;;;8.70;99.90;;;;;;5099692;28;20118;-61
2022/06/01 02:22:10;;;;;;;7.32;4.00;;;8.80;99.90;;;;;;5092442;28;20040;-62
2022/06/01 02:24:37;;;;;;;6.68;3.97;;;8.80;99.90;;;;;;5107432;28;20036;-62
2022/06/01 02:27:03;;;;;;;8.65;3.83;;;8.70;99.90;;;;;;5107225;28;20118;-62
2022/06/01 02:29:39;;;;;;;6.95;4.60;;;8.70;99.90;;;;;;5107576;28;20040;-62
2022/06/01 02:32:05;;;;;;;6.82;4.97;;;8.70;99.90;;;;;;5106076;28;20081;-62
2022/06/01 02:34:32;;;;;;;6.45;4.13;;;8.70;99.90;;;;;;5107673;28;20031;-61
2022/06/01 02:37:04;;;;;;;7.03;4.47;;;8.70;99.90;;;;;;5107674;28;20055;-62
2022/06/01 02:39:31;;;;;;;7.68;4.55;;;8.70;99.90;;;;;;5107424;28;20496;-62
2022/06/01 02:42:30;;;;;;;8.35;5.07;;;8.60;99.90;;;;;;5107119;28;20049;-62
2022/06/01 02:45:07;;;;;;;5.97;4.10;;;8.60;99.90;;;;;;5107311;28;20040;-62
2022/06/01 02:47:37;;;;;;;8.38;5.10;;;8.60;99.90;;;;;;5107085;28;20038;-62
2022/06/01 02:50:05;;;;;;;8.18;4.45;;;8.60;99.90;;;;;;5107786;28;20039;-63
2022/06/01 02:52:31;;;;;;;9.75;5.05;;;8.60;99.90;;;;;;5107081;28;20483;-63
2022/06/01 02:54:56;;;;;;;7.43;4.63;;;8.60;99.90;;;;;;5103621;28;20138;-62
2022/06/01 02:57:22;;;;;;;;;;;8.60;99.90;;;;;;5107583;28;20130;-62
2022/06/01 02:59:48;;;;;;;8.15;3.35;;;8.60;99.90;;;;;;5105953;28;20002;-62
2022/06/01 03:02:13;;;;;;;;;;;8.60;99.90;;;;;;5106555;28;20039;-63
2022/06/01 03:04:41;;;;;;;6.82;4.35;;;8.60;99.90;;;;;;5107257;28;19980;-62
2022/06/01 03:07:06;;;;;;;6.43;4.25;;;8.60;99.90;;;;;;5106916;28;20044;-62
2022/06/01 03:09:32;;;;;;;;;;;8.60;99.90;;;;;;5107626;28;20045;-62
2022/06/01 03:11:58;;;;;;;6.70;4.38;;;8.60;99.90;;;;;;5106322;28;19994;-62
2022/06/01 03:14:24;;;;;;;8.68;4.32;;;8.60;99.90;;;;;;5107385;28;20084;-63
2022/06/01 03:16:50;;;;;;;6.20;4.35;;;8.60;99.90;;;;;;5106550;28;20054;-62
2022/06/01 03:19:17;;;;;;;;;;;8.50;99.90;;;;;;5107707;28;20055;-63
2022/06/01 03:21:43;;;;;;;6.70;3.78;;;8.50;99.90;;;;;;5106756;28;20018;-61
2022/06/01 03:24:09;;;;;;;6.45;4.18;;;8.50;99.90;;;;;;5105879;28;20050;-62
2022/06/01 03:26:35;;;;;;;7.20;4.35;;;8.50;99.90;;;;;;5106643;28;20052;-62
2022/06/01 03:29:01;;;;;;;7.00;3.92;;;8.50;99.90;;;;;;5106503;28;20531;-62
2022/06/01 03:31:26;;;;;;;;;;;8.40;99.90;;;;;;5107403;28;20035;-62
2022/06/01 03:33:52;;;;;;;5.93;4.22;;;8.40;99.90;;;;;;5107560;28;19920;-62
2022/06/01 03:36:19;;;;;;;;;;;8.50;99.90;;;;;;5107353;28;20040;-62
2022/06/01 03:38:44;;;;;;;7.23;3.90;;;8.50;99.90;;;;;;5106908;28;19916;-62
2022/06/01 03:41:10;;;;;;;;;;;8.50;99.90;;;;;;5106653;28;20184;-62
2022/06/01 03:45:55;;;;;;;6.35;4.13;;;8.40;99.90;;;;;;5106417;28;20004;-62
2022/06/01 03:46:21;;;;;;;6.68;4.15;;;8.40;99.90;;;;;;5105831;28;20059;-61
2022/06/01 03:48:47;;;;;;;;;;;8.40;99.90;;;;;;5108099;28;20047;-62
2022/06/01 03:51:12;;;;;;;5.45;4.00;;;8.40;99.90;;;;;;5106023;28;19979;-62
2022/06/01 03:53:38;;;;;;;;;;;8.40;99.90;;;;;;5108262;28;20421;-62
2022/06/01 03:56:04;;;;;;;8.60;3.47;;;8.30;99.90;;;;;;5105600;28;20337;-62
2022/06/01 03:58:29;;;;;;;5.55;3.65;;;8.30;99.90;;;;;;5104187;28;20106;-62
2022/06/01 04:00:55;;;;;;;;;;;8.30;99.90;;;;;;5109986;27;20045;-63
2022/06/01 04:03:21;;;;;;;5.78;3.47;;;8.30;99.90;;;;;;5110193;28;19915;-61
2022/06/01 04:05:47;;;;;;;;;;;8.50;99.90;;;;;;5110250;28;20130;-63
2022/06/01 04:08:12;;;;;;;8.10;3.53;;;8.60;99.90;;;;;;5110143;28;20427;-62
2022/06/01 04:10:39;;;;;;;;;;;8.60;99.90;;;;;;5110639;28;20499;-62
2022/06/01 04:13:04;;;;;;;;;;;8.70;99.90;;;;;;5110803;28;20402;-62
2022/06/01 04:15:30;;;;;;;;;;;8.70;99.90;;;;;;5106406;28;19912;-62
2022/06/01 04:17:56;;;;;;;;;;;8.70;99.90;;;;;;5100445;28;19919;-63
2022/06/01 04:20:21;;;;;;;;;;;8.70;99.90;;;;;;5107922;27;19912;-63
2022/06/01 04:22:47;;;;;;;;;;;8.90;99.90;;;;;;5103138;28;20020;-63
2022/06/01 04:25:14;;;;;;;;;;;9.10;99.90;;;;;;5103620;28;19924;-64
2022/06/01 04:27:40;;;;;;;;;;;9.30;99.90;;;;;;5109710;27;19920;-66
2022/06/01 04:30:07;;;;;;;;;;;10.00;99.90;;;;;;5109946;28;19919;-61
2022/06/01 04:32:33;;;;;;;;;;;11.70;99.90;;;;;;5109214;28;20571;-62
2022/06/01 04:34:59;;;;;;;;;;;13.00;99.90;;;;;;5109764;28;19916;-62
2022/06/01 04:37:25;;;;;;;;;;;13.10;99.90;;;;;;5110269;28;19916;-63
2022/06/01 04:39:50;;;;;;;;;;;12.40;99.90;;;;;;5109590;28;19916;-64
2022/06/01 04:42:16;;;;;;;;;;;11.90;99.90;;;;;;5109217;28;20395;-63
2022/06/01 04:44:43;;;;;;;;;;;11.30;99.90;;;;;;5110029;28;20429;-67
2022/06/01 04:47:09;;;;;;;;;;;11.00;99.90;;;;;;5109355;28;19923;-60
2022/06/01 04:49:35;;;;;;;;;;;11.00;99.90;;;;;;5107680;28;19951;-62
2022/06/01 04:52:01;;;;;;;;;;;11.10;99.90;;;;;;5107970;28;20398;-63
2022/06/01 04:54:26;;;;;;;;;;;11.00;99.90;;;;;;5109262;28;19919;-64
2022/06/01 04:56:52;;;;;;;;;;;11.00;99.90;;;;;;5109227;27;19926;-65
2022/06/01 04:59:17;;;;;;;;;;;11.10;99.90;;;;;;5110062;28;20007;-65
2022/06/01 05:01:44;;;;;;;;;;;11.10;99.90;;;;;;5108180;28;19920;-62
2022/06/01 05:04:09;;;;;;;;;;;11.10;99.90;;;;;;5109051;28;19920;-65
2022/06/01 05:06:35;;;;;;;;;;;11.20;99.90;;;;;;5109567;28;19926;-66
2022/06/01 05:09:00;;;;;;;;;;;11.30;99.90;;;;;;5109706;28;19916;-64
2022/06/01 05:11:26;;;;;;;;;;;11.30;99.90;;;;;;5108667;28;20450;-63
2022/06/01 05:13:51;;;;;;;;;;;11.30;99.90;;;;;;5109767;28;20601;-65
2022/06/01 05:16:17;;;;;;;;;;;11.30;99.90;;;;;;5109432;28;20002;-63
2022/06/01 05:18:43;;;;;;;;;;;11.40;99.90;;;;;;5109382;28;19923;-62
2022/06/01 05:21:09;;;;;;;;;;;11.40;99.90;;;;;;5106128;28;19919;-62
2022/06/01 05:23:34;;;;;;;;;;;11.60;99.90;;;;;;5108629;28;19959;-63
2022/06/01 05:26:00;;;;;;;;;;;11.70;99.90;;;;;;5107019;28;20007;-62
2022/06/01 05:28:26;;;;;;;;;;;12.00;99.90;;;;;;5108999;28;19923;-63
2022/06/01 05:30:55;;;;;;;;;;;12.50;99.90;;;;;;5106341;28;19927;-64
2022/06/01 05:33:21;;;;;;;;;;;12.40;99.90;;;;;;5108582;28;20405;-62
2022/06/01 05:35:47;;;;;;;;;;;12.40;99.90;;;;;;5103458;28;19919;-67
2022/06/01 05:38:12;;;;;;;;;;;12.30;99.90;;;;;;5105372;27;19920;-65
2022/06/01 05:40:38;;;;;;;;;;;12.30;99.90;;;;;;5100332;28;19916;-64
2022/06/01 05:43:07;;;;;;;;;;;12.10;99.90;;;;;;5100412;28;19965;-65
2022/06/01 05:45:32;;;;;;;;;;;12.10;99.90;;;;;;5097780;28;20015;-64
2022/06/01 05:47:58;;;;;;;;;;;12.20;99.90;;;;;;5102262;28;20442;-64
2022/06/01 05:50:23;;;;;;;;;;;12.10;99.90;;;;;;5108203;28;19923;-64
2022/06/01 05:52:49;;;;;;;;;;;12.20;99.90;;;;;;5108356;28;20574;-65
2022/06/01 05:55:14;;;;;;;;;;;12.20;99.90;;;;;;5105022;28;20002;-65
2022/06/01 05:57:40;;;;;;;;;;;12.10;99.90;;;;;;5100124;28;19923;-64
2022/06/01 06:00:08;;;;;;;;;;;12.10;99.90;;;;;;5101669;28;20011;-65
2022/06/01 06:02:33;;;;;;;;;;;12.10;99.90;;;;;;5076904;28;19916;-64
2022/06/01 06:04:59;;;;;;;;;;;12.00;99.90;;;;;;5079287;28;19923;-63
2022/06/01 06:07:24;;;;;;;;;;;12.00;99.90;;;;;;5076354;28;19924;-65
2022/06/01 06:09:50;;;;;;;;;;;12.10;99.90;;;;;;5076079;28;20383;-64
2022/06/01 06:12:16;;;;;;;;;;;12.20;99.90;;;;;;5081305;28;19927;-66
2022/06/01 06:14:41;;;;;;;;;;;12.50;99.90;;;;;;5082493;28;19916;-65
2022/06/01 06:17:07;;;;;;;;;;;12.50;99.90;;;;;;5087742;28;19916;-62
2022/06/01 06:19:33;;;;;;;;;;;12.70;99.90;;;;;;5088650;28;19920;-63
2022/06/01 06:21:58;;;;;;;;;;;12.90;99.90;;;;;;5100632;28;20398;-64
2022/06/01 06:24:24;;;;;;;;;;;12.90;99.90;;;;;;5086038;28;20303;-64
2022/06/01 06:26:50;;;;;;;;;;;13.00;99.90;;;;;;5086757;28;20287;-64
2022/06/01 06:29:16;;;;;;;;;;;12.90;99.90;;;;;;5087831;28;19919;-63
2022/06/01 06:31:42;;;;;;;;;;;12.80;99.90;;;;;;5086136;28;20070;-64
2022/06/01 06:34:08;;;;;;;;;;;12.80;99.90;;;;;;5086972;28;19927;-64
2022/06/01 06:36:33;;;;;;;;;;;13.00;99.90;;;;;;5087696;28;19916;-64
2022/06/01 06:38:59;;;;;;;;;;;13.20;99.90;;;;;;5086845;28;20016;-63
2022/06/01 06:41:24;;;;;;;;;;;13.40;99.90;;;;;;5087190;28;19916;-64
2022/06/01 06:43:51;;;;;;;;;;;13.40;99.90;;;;;;5087145;28;20398;-63
2022/06/01 06:46:18;;;;;;;;;;;13.50;99.90;;;;;;5087553;28;19920;-64
2022/06/01 06:48:44;;;;;;;;;;;13.30;99.90;;;;;;5087295;28;19959;-63
2022/06/01 06:51:10;;;;;;;;;;;13.60;99.90;;;;;;5087185;28;20280;-64
2022/06/01 06:53:36;;;;;;;;;;;13.60;99.90;;;;;;5086067;28;19916;-64
2022/06/01 06:56:02;;;;;;;;;;;13.60;99.90;;;;;;5086448;28;19916;-65
2022/06/01 06:58:28;;;;;;;;;;;13.50;99.90;;;;;;5087286;28;19920;-63
2022/06/01 07:00:53;;;;;;;;;;;13.60;99.90;;;;;;5086257;28;20002;-64
2022/06/01 07:03:19;;;;;;;;;;;13.70;99.90;;;;;;5087289;28;20384;-63
2022/06/01 07:08:29;;;;;;;;;;;13.80;99.90;;;;;;5087080;28;19916;-63
2022/06/01 07:10:55;;;;;;;;;;;13.70;99.90;;;;;;5086847;28;19923;-64
2022/06/01 07:13:21;;;;;;;;;;;14.10;99.90;;;;;;5086881;28;19916;-62
2022/06/01 07:15:47;;;;;;;;;;;14.80;99.90;;;;;;5087038;28;19920;-61
2022/06/01 07:18:13;;;;;;;;;;;15.20;99.20;;;;;;5087242;28;20361;-63
2022/06/01 07:20:39;;;;;;;;;;;15.10;99.60;;;;;;5086586;28;19923;-64
2022/06/01 07:23:05;;;;;;;;;;;15.10;97.60;;;;;;5082322;28;20372;-63
2022/06/01 07:25:30;;;;;;;;;;;14.90;99.10;;;;;;5083541;28;19916;-63
2022/06/01 07:27:57;;;;;;;;;;;14.70;99.90;;;;;;5078833;28;19921;-61
2022/06/01 07:30:23;;;;;;;;;;;14.50;99.80;;;;;;5089015;28;19934;-63
2022/06/01 07:32:48;;;;;;;;;;;14.30;99.90;;;;;;5108364;28;19919;-64
2022/06/01 07:35:17;;;;;;;;;;;14.20;99.90;;;;;;5109942;28;20009;-63
2022/06/01 07:43:13;;;;;;;;;;;15.00;97.10;;;;;;5101050;28;19947;-62
2022/06/01 07:45:40;;;;;;;;;;;15.10;96.70;;;;;;5105787;28;19921;-63
2022/06/01 07:48:06;;;;;;;;;;;14.90;97.70;;;;;;5111983;28;19920;-63
2022/06/01 07:50:33;;;;;;;;;;;14.90;97.50;;;;;;5111516;28;19915;-62
2022/06/01 07:52:59;;;;;;;;;;;14.70;96.80;;;;;;5110744;28;19959;-63
2022/06/01 07:55:25;;;;;;;;;;;14.90;96.80;;;;;;5111033;28;19920;-64
2022/06/01 07:57:50;;;;;;;;;;;14.60;96.50;;;;;;5108561;28;19916;-65
2022/06/01 08:00:16;;;;;;;;;;;14.30;97.20;;;;;;5109081;27;20002;-64
2022/06/01 08:02:42;;;;;;;;;;;14.10;97.50;;;;;;5122852;27;19966;-63
2022/06/01 08:05:08;;;;;;;;;;;14.90;96.70;;;;;;5098686;28;19959;-64
2022/06/01 08:07:33;;;;;;;;;;;15.60;95.90;;;;;;5108204;28;19932;-65
2022/06/01 08:09:59;;;;;;;;;;;15.40;95.00;;;;;;5092975;28;20016;-64
2022/06/01 08:15:09;;;;;;;;;;;14.40;96.80;;;;;;5092821;28;19916;-64
2022/06/01 08:17:35;;;;;;;;;;;14.10;96.80;;;;;;5107983;28;20026;-64
2022/06/01 08:20:00;;;;;;;;;;;13.90;97.70;;;;;;5113084;27;19924;-65
2022/06/01 08:22:26;;;;;;;;;;;13.70;98.20;;;;;;5114272;27;19915;-63
2022/06/01 08:24:52;;;;;;;;;;;13.60;98.80;;;;;;5123928;27;21496;-64
2022/06/01 08:27:17;;;;;;;;;;;13.80;98.90;;;;;;5115287;27;20720;-63
2022/06/01 08:29:43;;;;;;;;;;;13.80;98.20;;;;;;5117081;27;19919;-65
2022/06/01 08:32:08;;;;;;;;;;;13.80;97.20;;;;;;5092843;27;20010;-65
2022/06/01 08:34:38;;;;;;;;;;;13.70;97.20;;;;;;5089012;28;19920;-64
2022/06/01 08:37:04;;;;;;;;;;;13.50;97.90;;;;;;5088312;28;19920;-64
2022/06/01 08:39:29;;;;;;;;;;;13.40;98.30;;;;;;5085802;28;19923;-65
2022/06/01 08:41:56;;;;;;;;;;;13.30;98.40;;;;;;5089302;28;19920;-65
2022/06/01 08:44:22;;;;;;;;;;;13.50;98.80;;;;;;5088788;28;20014;-65
2022/06/01 08:46:47;;;;;;;;;;;13.70;98.60;;;;;;5089447;28;20022;-64
2022/06/01 08:49:17;;;;;;;;;;;13.70;98.30;;;;;;5089012;28;19926;-64
2022/06/01 08:51:43;;;;;;;;;;;13.70;98.30;;;;;;5090400;28;19916;-65
2022/06/01 08:54:09;;;;;;;;;;;13.60;98.70;;;;;;5090414;28;20442;-65
2022/06/01 08:56:37;;;;;;;;;;;13.40;98.90;;;;;;5088888;28;20406;-66
2022/06/01 08:59:22;;;;;;;;;;;13.50;98.70;;;;;;5089678;28;19985;-65
2022/06/01 09:02:05;;;;;;;;;;;13.60;98.70;;;;;;5101309;27;19925;-65
2022/06/01 09:04:37;;;;;;;;;;;13.80;99.20;;;;;;5109374;28;20564;-65
2022/06/01 09:07:09;;;;;;;;;;;14.00;98.60;;;;;;5107185;28;19975;-64
2022/06/01 09:09:54;;;;;;;;;;;14.10;97.50;;;;;;5107462;28;20046;-64
2022/06/01 09:12:19;;;;;;;;;;;14.30;98.30;;;;;;5105126;28;19923;-65
2022/06/01 09:14:49;;;;;;;;;;;14.50;97.30;;;;;;5109254;28;19916;-64
2022/06/01 09:17:14;;;;;;;;;;;14.50;97.60;;;;;;5101280;28;20188;-64
2022/06/01 09:22:37;;;;;;;;;;;14.50;96.90;;;;;;5098930;28;20582;-64
2022/06/01 09:25:07;;;;;;;;;;;14.60;97.80;;;;;;5106930;28;19927;-64
2022/06/01 09:27:34;;;;;;;;;;;14.60;95.40;;;;;;5108817;28;19920;-65
2022/06/01 09:30:15;;;;;;;;;;;14.40;96.80;;;;;;5109743;28;19911;-65
2022/06/01 09:32:41;;;;;;;;;;;14.10;96.90;;;;;;5108595;28;19922;-65
2022/06/01 09:35:08;;;;;;;;;;;14.00;97.40;;;;;;5108863;28;19919;-65
2022/06/01 09:37:36;;;;;;;;;;;13.90;96.30;;;;;;5106927;28;19920;-64
2022/06/01 09:40:04;;;;;;;;;;;13.90;96.40;;;;;;5106646;28;19923;-66
2022/06/01 09:42:30;;;;;;;;;;;14.00;96.10;;;;;;5105724;28;20018;-65
2022/06/01 09:44:57;;;;;;;;;;;14.20;97.10;;;;;;5106187;28;20006;-65
2022/06/01 09:47:43;;;;;;;;;;;14.20;95.60;;;;;;5108773;28;20478;-65
2022/06/01 09:50:24;;;;;;;;;;;14.10;97.10;;;;;;5106926;28;19923;-65
2022/06/01 09:52:54;;;;;;;;;;;14.10;97.90;;;;;;5106993;28;19926;-64
2022/06/01 09:55:23;;;;;;;;;;;14.00;98.00;;;;;;5105961;28;19922;-65
2022/06/01 10:06:05;;;;;;;;;;;14.00;97.30;;;;;;5108364;28;19915;-65
2022/06/01 10:06:32;;;;;;;;;;;14.20;99.20;;;;;;5087393;28;19920;-65
2022/06/01 10:09:03;;;;;;;;;;;14.40;98.50;;;;;;5107887;28;20010;-65
2022/06/01 10:11:32;;;;;;;;;;;14.70;96.30;;;;;;5088748;28;19916;-65
2022/06/01 10:14:03;;;;;;;;;;;14.80;95.10;;;;;;5106359;28;20053;-65
2022/06/01 10:16:29;;;;;;;;;;;15.00;94.80;;;;;;5107495;28;20322;-65
2022/06/01 10:18:56;;;;;;;;;;;14.90;94.30;;;;;;5107886;28;19926;-64
2022/06/01 10:21:25;;;;;;;;;;;14.80;95.30;;;;;;5107520;28;19922;-63
2022/06/01 10:23:59;;;;;;;;;;;14.60;94.80;;;;;;5107139;28;19920;-65
2022/06/01 10:26:33;;;;;;;;;;;14.40;95.30;;;;;;5105627;28;20383;-65
2022/06/01 10:29:03;;;;;;;;;;;14.40;95.30;;;;;;5102681;28;19927;-64
2022/06/01 10:31:34;;;;;;;;;;;14.40;96.60;;;;;;5106216;28;19972;-65
2022/06/01 10:34:00;;;;;;;;;;;14.40;97.30;;;;;;5104009;28;20518;-64
2022/06/01 10:36:35;;;;;;;;;;;14.30;96.40;;;;;;5101334;28;19915;-64
2022/06/01 10:39:03;;;;;;;;;;;14.20;95.90;;;;;;5097867;28;20402;-64
2022/06/01 10:41:35;;;;;;;;;;;14.30;95.60;;;;;;5105667;28;19915;-64
2022/06/01 10:44:04;;;;;;;;;;;14.30;96.80;;;;;;5105192;28;19923;-64
2022/06/01 10:46:40;;;;;;;;;;;14.30;95.90;;;;;;5105766;28;20552;-65
2022/06/01 10:49:18;;;;;;;;;;;14.50;96.50;;;;;;5105615;28;20529;-65
2022/06/01 10:51:48;;;;;;;;;;;14.60;96.20;;;;;;5104902;28;19915;-64
2022/06/01 10:54:16;;;;;;;;;;;14.50;95.30;;;;;;5107425;28;20444;-65
2022/06/01 10:56:42;;;;;;;;;;;14.50;95.50;;;;;;5104190;28;19923;-65
2022/06/01 10:59:11;;;;;;;;;;;14.60;94.90;;;;;;5108118;28;19920;-67
2022/06/01 11:01:52;;;;;;;;;;;14.70;94.40;;;;;;5107003;28;19923;-67
2022/06/01 11:04:26;;;;;;;;;;;14.80;94.50;;;;;;5098329;28;19923;-65
2022/06/01 11:07:10;;;;;;;;;;;14.90;93.60;;;;;;5106301;28;19931;-64
2022/06/01 11:09:44;;;;;;;;;;;14.80;93.10;;;;;;5106879;28;19924;-64
2022/06/01 11:12:26;;;;;;;;;;;14.70;93.10;;;;;;5106059;28;19938;-59
2022/06/01 11:14:52;;;;;;;;;;;14.80;94.00;;;;;;5107411;28;19920;-62
2022/06/01 11:17:27;;;;;;;;;;;15.00;93.30;;;;;;5107248;28;20512;-63
2022/06/01 11:19:53;;;;;;;;;;;15.00;93.90;;;;;;5107731;28;20055;-64
2022/06/01 11:22:36;;;;;;;;;;;14.90;93.20;;;;;;5107318;28;20572;-64
2022/06/01 11:25:15;;;;;;;;;;;14.90;93.10;;;;;;5105373;28;20390;-64
2022/06/01 11:28:03;;;;;;;;;;;15.00;92.90;;;;;;5106428;28;19924;-66
2022/06/01 11:30:40;;;;;;;;;;;15.00;94.20;;;;;;5074108;28;20074;-63
2022/06/01 11:33:26;;;;;;;;;;;14.90;93.80;;;;;;5087423;28;19977;-64
2022/06/01 11:36:05;;;;;;;;;;;14.80;94.50;;;;;;5075413;28;19912;-64
2022/06/01 11:38:34;;;;;;;;;;;14.80;94.10;;;;;;5107382;28;19950;-63
2022/06/01 11:41:23;;;;;;;;;;;14.60;94.70;;;;;;5106453;28;19919;-63
2022/06/01 11:43:53;;;;;;;;;;;14.60;95.10;;;;;;5107675;28;19942;-62
2022/06/01 11:46:23;;;;;;;;;;;14.70;95.20;;;;;;5106635;28;19934;-63
2022/06/01 11:48:58;;;;;;;;;;;14.80;94.30;;;;;;5103000;28;20434;-63
2022/06/01 11:51:43;;;;;;;;;;;15.00;94.40;;;;;;5091206;28;20453;-63
2022/06/01 11:54:09;;;;;;;;;;;15.10;94.90;;;;;;5105830;28;19916;-63
2022/06/01 11:56:41;;;;;;;;;;;15.20;93.50;;;;;;5105313;28;19926;-63
2022/06/01 11:59:07;;;;;;;;;;;15.10;93.10;;;;;;5106946;28;19961;-63
2022/06/01 12:01:35;;;;;;;;;;;15.00;94.40;;;;;;5105932;28;19924;-63
2022/06/01 12:04:39;;;;;;;;;;;14.90;93.90;;;;;;5106325;28;19908;-63
2022/06/01 12:07:16;;;;;;;;;;;14.80;94.70;;;;;;5066843;28;19920;-64
2022/06/01 12:09:44;;;;;;;;;;;14.80;94.20;;;;;;5051985;28;19921;-63
2022/06/01 12:12:28;;;;;;;;;;;15.00;95.00;;;;;;5074734;28;19938;-63
2022/06/01 12:14:58;;;;;;;;;;;15.00;94.30;;;;;;5109709;28;19915;-63
2022/06/01 12:17:24;;;;;;;;;;;15.10;94.00;;;;;;5106508;28;20318;-63
2022/06/01 12:19:51;;;;;;;;;;;15.40;94.50;;;;;;5101466;28;19920;-63
2022/06/01 12:28:31;;;;;;;;;;;15.00;93.70;;;;;;5100952;28;19920;-64
2022/06/01 12:31:12;;;;;;;;;;;15.00;95.00;;;;;;5122790;27;19931;-61
2022/06/01 12:33:56;;;;;;;;;;;15.20;95.20;;;;;;5098148;28;19974;-63
2022/06/01 12:36:21;;;;;;;;;;;15.30;94.10;;;;;;5100829;28;19927;-63
2022/06/01 12:38:47;;;;;;;;;;;15.40;93.60;;;;;;5102903;28;19919;-62
2022/06/01 12:41:18;;;;;;;;;;;15.40;93.70;;;;;;5109711;28;19920;-64
2022/06/01 12:43:52;;;;;;;;;;;15.40;92.60;;;;;;5109450;28;20406;-63
2022/06/01 12:46:19;;;;;;;;;;;15.70;93.40;;;;;;5109443;28;19930;-64
2022/06/01 12:48:45;;;;;;;;;;;15.80;91.90;;;;;;5108648;28;19920;-63
2022/06/01 12:51:10;;;;;;;;;;;15.80;91.70;;;;;;5101541;28;19926;-64
2022/06/01 12:53:39;;;;;;;;;;;16.00;92.30;;;;;;5108813;28;20386;-63
2022/06/01 12:56:09;;;;;;;;;;;15.90;91.00;;;;;;5108527;28;19919;-63
2022/06/01 12:58:36;;;;;;;;;;;16.00;91.80;;;;;;5109794;28;20410;-62
2022/06/01 13:01:02;;;;;;;;;;;16.10;89.60;;;;;;5108592;28;20056;-63
2022/06/01 13:03:29;;;;;;;;;;;16.00;91.00;;;;;;5109190;28;19927;-63
2022/06/01 13:05:56;;;;;;;;;;;16.10;91.10;;;;;;5109580;28;19920;-63
2022/06/01 13:08:23;;;;;;;;;;;15.90;90.60;;;;;;5108686;28;20080;-62
2022/06/01 13:10:49;;;;;;;;;;;15.80;91.30;;;;;;5108794;28;19912;-64
2022/06/01 13:13:16;;;;;;;;;;;15.70;91.40;;;;;;5100684;28;19920;-64
2022/06/01 13:15:43;;;;;;;;;;;16.00;90.80;;;;;;5096946;28;19988;-63
2022/06/01 13:18:13;;;;;;;;;;;16.00;90.80;;;;;;5109410;28;19954;-64
2022/06/01 13:20:43;;;;;;;;;;;15.80;90.30;;;;;;5108616;28;19912;-63
2022/06/01 13:23:18;;;;;;;;;;;15.60;90.80;;;;;;5108754;28;19919;-63
2022/06/01 13:25:44;;;;;;;;;;;15.70;90.80;;;;;;5108507;28;19912;-63
2022/06/01 13:28:10;;;;;;;;;;;15.80;90.80;;;;;;5108710;28;19927;-63
2022/06/01 13:30:37;;;;;;;;;;;15.90;90.10;;;;;;5108175;28;19946;-63
2022/06/01 13:33:15;;;;;;;;;;;15.80;89.60;;;;;;5108061;28;19915;-63
2022/06/01 13:35:43;;;;;;;;;;;15.90;90.50;;;;;;5106974;28;19916;-63
2022/06/01 13:38:18;;;;;;;;;;;16.00;90.10;;;;;;5108278;28;19920;-63
2022/06/01 13:41:01;;;;;;;;;;;16.20;90.20;;;;;;5107965;28;19926;-63
2022/06/01 13:43:26;;;;;;;;;;;15.90;90.20;;;;;;5105513;28;20004;-63
2022/06/01 13:45:52;;;;;;;;;;;15.80;90.00;;;;;;5103893;28;19973;-63
2022/06/01 13:48:29;;;;;;;;;;;15.70;90.70;;;;;;5105784;28;19954;-63
2022/06/01 13:50:55;;;;;;;;;;;15.50;90.80;;;;;;5107873;28;19912;-64
2022/06/01 13:53:42;;;;;;;;;;;15.60;90.90;;;;;;5107466;28;19927;-63
2022/06/01 13:56:15;;;;;;;;;;;15.50;91.20;;;;;;5107528;28;19912;-63
2022/06/01 13:58:52;;;;;;;;;;;15.30;91.10;;;;;;5107789;28;19927;-63
2022/06/01 14:01:36;;;;;;;;;;;15.20;91.30;;;;;;5105010;28;19915;-63
2022/06/01 14:04:11;;;;;;;;;;;15.10;91.80;;;;;;5107617;28;19920;-63
2022/06/01 14:06:42;;;;;;;;;;;15.20;91.10;;;;;;5106823;28;19969;-63
2022/06/01 14:09:09;;;;;;;;;;;15.10;91.70;;;;;;5106951;28;19915;-64
2022/06/01 14:11:35;;;;;;;;;;;15.10;91.60;;;;;;5107363;28;19915;-64
2022/06/01 14:14:04;;;;;;;;;;;15.00;91.80;;;;;;5106687;28;20009;-64
2022/06/01 14:16:31;;;;;;;;;;;14.80;92.20;;;;;;5104453;28;19926;-64
2022/06/01 14:18:58;;;;;;;;;;;14.80;92.60;;;;;;5103179;28;19916;-63
2022/06/01 14:21:23;;;;;;;;;;;14.80;93.00;;;;;;5102063;28;19923;-63
2022/06/01 14:23:49;;;;;;;;;;;14.60;92.50;;;;;;5100256;28;19961;-64
2022/06/01 14:29:02;;;;;;;;;;;14.60;90.10;;;;;;5099674;28;19923;-63
2022/06/01 14:31:30;;;;;;;;;;;14.60;90.50;;;;;;5095515;28;19923;-64
2022/06/01 14:33:56;;;;;;;;;;;14.80;90.70;;;;;;5099222;28;19916;-63
2022/06/01 14:36:23;;;;;;;;;;;15.00;91.50;;;;;;5093497;28;19961;-63
2022/06/01 14:38:48;;;;;;;;;;;15.20;91.40;;;;;;5121403;27;20022;-63
2022/06/01 14:41:34;;;;;;;;;;;15.30;90.10;;;;;;5106780;28;20046;-63